createdAt,value
2023-01-19T00:01:45.047Z,-1.06
2023-01-19T00:04:13.585Z,-1.05
2023-01-19T00:06:44.515Z,-1.06
2023-01-19T00:09:12.927Z,-1.06
2023-01-19T00:11:52.929Z,-1.06
2023-01-19T00:14:21.639Z,-1.07
2023-01-19T00:16:50.493Z,-1.07
2023-01-19T00:19:18.899Z,-1.08
2023-01-19T00:21:47.525Z,-1.08
2023-01-19T00:24:18.905Z,-1.07
2023-01-19T00:26:47.982Z,-1.07
2023-01-19T00:29:16.524Z,-1.07
2023-01-19T00:31:45.308Z,-1.10
2023-01-19T00:34:13.743Z,-1.12
2023-01-19T00:36:42.427Z,-1.13
2023-01-19T00:39:10.935Z,-1.12
2023-01-19T00:41:57.601Z,-1.12
2023-01-19T00:44:26.042Z,-1.12
2023-01-19T00:47:05.807Z,-1.14
2023-01-19T00:49:34.392Z,-1.12
2023-01-19T00:52:02.631Z,-1.11
2023-01-19T00:54:40.030Z,-1.13
2023-01-19T00:57:15.744Z,-1.14
2023-01-19T00:59:58.006Z,-1.14
2023-01-19T01:02:26.634Z,-1.12
2023-01-19T01:05:03.964Z,-1.12
2023-01-19T01:07:40.934Z,-1.12
2023-01-19T01:10:16.647Z,-1.12
2023-01-19T01:12:57.427Z,-1.11
2023-01-19T01:15:29.825Z,-1.12
2023-01-19T01:17:58.321Z,-1.11
2023-01-19T01:20:33.785Z,-1.12
2023-01-19T01:23:02.817Z,-1.12
2023-01-19T01:25:38.806Z,-1.13
2023-01-19T01:28:09.948Z,-1.12
2023-01-19T01:30:41.311Z,-1.13
2023-01-19T01:33:41.356Z,-1.14
2023-01-19T01:36:07.304Z,-1.13
2023-01-19T01:38:36.312Z,-1.13
2023-01-19T01:41:04.978Z,-1.14
2023-01-19T01:43:51.822Z,-1.14
2023-01-19T01:46:29.255Z,-1.14
2023-01-19T01:49:23.980Z,-1.15
2023-01-19T01:52:15.432Z,-1.17
2023-01-19T01:54:44.183Z,-1.16
2023-01-19T01:57:23.239Z,-1.17
2023-01-19T02:00:04.022Z,-1.20
2023-01-19T02:02:55.339Z,-1.22
2023-01-19T02:05:35.542Z,-1.23
2023-01-19T02:08:51.024Z,-1.24
2023-01-19T02:11:38.248Z,-1.27
2023-01-19T02:14:07.216Z,-1.28
2023-01-19T02:16:38.498Z,-1.30
2023-01-19T02:19:15.485Z,-1.33
2023-01-19T02:22:08.250Z,-1.35
2023-01-19T02:24:36.985Z,-1.36
2023-01-19T02:27:06.758Z,-1.38
2023-01-19T02:29:35.882Z,-1.40
2023-01-19T02:32:08.403Z,-1.41
2023-01-19T02:34:37.113Z,-1.41
2023-01-19T02:37:12.308Z,-1.41
2023-01-19T02:40:02.777Z,-1.41
2023-01-19T02:42:58.632Z,-1.40
2023-01-19T02:45:27.864Z,-1.41
2023-01-19T02:48:33.483Z,-1.43
2023-01-19T02:51:19.230Z,-1.44
2023-01-19T02:54:04.105Z,-1.48
2023-01-19T02:57:40.603Z,-1.50
2023-01-19T03:00:35.127Z,-1.51
2023-01-19T03:03:52.694Z,-1.51
2023-01-19T03:06:46.369Z,-1.51
2023-01-19T03:09:41.501Z,-1.53
2023-01-19T03:12:33.067Z,-1.53
2023-01-19T03:15:19.587Z,-1.54
2023-01-19T03:18:08.403Z,-1.56
2023-01-19T03:21:17.365Z,-1.54
2023-01-19T03:23:51.106Z,-1.54
2023-01-19T03:27:31.346Z,-1.54
2023-01-19T03:30:30.458Z,-1.55
2023-01-19T03:33:27.568Z,-1.59
2023-01-19T03:36:03.892Z,-1.59
2023-01-19T03:38:40.871Z,-1.57
2023-01-19T03:41:26.737Z,-1.57
2023-01-19T03:44:39.089Z,-1.60
2023-01-19T03:47:13.394Z,-1.64
2023-01-19T03:50:02.793Z,-1.70
2023-01-19T03:52:33.725Z,-1.77
2023-01-19T03:55:11.141Z,-1.84
2023-01-19T03:58:03.134Z,-1.89
2023-01-19T04:01:04.803Z,-1.97
2023-01-19T04:03:59.389Z,-2.00
2023-01-19T04:06:30.309Z,-2.01
2023-01-19T04:09:25.003Z,-2.03
2023-01-19T04:12:13.704Z,-2.08
2023-01-19T04:14:45.593Z,-2.12
2023-01-19T04:17:36.879Z,-2.21
2023-01-19T04:20:09.846Z,-2.25
2023-01-19T04:22:41.205Z,-2.30
2023-01-19T04:25:13.414Z,-2.36
2023-01-19T04:27:54.622Z,-2.39
2023-01-19T04:30:43.439Z,-2.42
2023-01-19T04:33:11.999Z,-2.40
2023-01-19T04:35:40.891Z,-2.38
2023-01-19T04:38:15.659Z,-2.38
2023-01-19T04:40:47.134Z,-2.39
2023-01-19T04:43:16.016Z,-2.38
2023-01-19T04:46:04.796Z,-2.39
2023-01-19T04:48:41.181Z,-2.39
2023-01-19T04:51:34.496Z,-2.46
2023-01-19T04:54:03.384Z,-2.47
2023-01-19T04:57:05.477Z,-2.48
2023-01-19T04:59:55.552Z,-2.48
2023-01-19T05:02:27.429Z,-2.46
2023-01-19T05:05:27.177Z,-2.48
2023-01-19T05:08:36.395Z,-2.55
2023-01-19T05:11:07.742Z,-2.58
2023-01-19T05:13:38.656Z,-2.61
2023-01-19T05:16:10.417Z,-2.64
2023-01-19T05:18:55.208Z,-2.67
2023-01-19T05:21:46.801Z,-2.68
2023-01-19T05:24:20.992Z,-2.70
2023-01-19T05:27:04.414Z,-2.72
2023-01-19T05:29:53.387Z,-2.72
2023-01-19T05:33:04.913Z,-2.74
2023-01-19T05:35:36.702Z,-2.76
2023-01-19T05:38:10.854Z,-2.78
2023-01-19T05:40:58.489Z,-2.81
2023-01-19T05:43:30.029Z,-2.83
2023-01-19T05:46:00.923Z,-2.85
2023-01-19T05:48:32.370Z,-2.90
2023-01-19T05:51:24.895Z,-2.95
2023-01-19T05:54:06.593Z,-2.98
2023-01-19T05:56:38.029Z,-2.99
2023-01-19T05:59:26.791Z,-3.02
2023-01-19T06:02:04.189Z,-3.05
2023-01-19T06:04:36.491Z,-3.06
2023-01-19T06:07:07.127Z,-3.09
2023-01-19T06:09:35.763Z,-3.12
2023-01-19T06:12:27.834Z,-3.18
2023-01-19T06:15:06.297Z,-3.27
2023-01-19T06:17:37.792Z,-3.32
2023-01-19T06:20:09.706Z,-3.34
2023-01-19T06:22:38.871Z,-3.36
2023-01-19T06:25:10.328Z,-3.38
2023-01-19T06:28:22.087Z,-3.42
2023-01-19T06:31:11.868Z,-3.48
2023-01-19T06:33:40.473Z,-3.54
2023-01-19T06:36:09.765Z,-3.59
2023-01-19T06:38:38.554Z,-3.63
2023-01-19T06:41:06.756Z,-3.66
2023-01-19T06:43:55.251Z,-3.68
2023-01-19T06:46:36.117Z,-3.70
2023-01-19T06:49:39.994Z,-3.71
2023-01-19T06:52:12.476Z,-3.74
2023-01-19T06:54:51.536Z,-3.77
2023-01-19T06:57:20.582Z,-3.76
2023-01-19T06:59:51.023Z,-3.76
2023-01-19T07:03:05.149Z,-3.75
2023-01-19T07:06:02.594Z,-3.77
2023-01-19T07:08:30.905Z,-3.79
2023-01-19T07:11:25.880Z,-3.83
2023-01-19T07:14:34.093Z,-3.85
2023-01-19T07:17:19.688Z,-3.87
2023-01-19T07:19:48.275Z,-3.85
2023-01-19T07:22:37.640Z,-3.83
2023-01-19T07:25:45.331Z,-3.80
2023-01-19T07:28:43.165Z,-3.74
2023-01-19T07:31:21.342Z,-3.71
2023-01-19T07:33:52.456Z,-3.70
2023-01-19T07:36:41.644Z,-3.70
2023-01-19T07:39:10.377Z,-3.71
2023-01-19T07:41:42.210Z,-3.71
2023-01-19T07:44:30.952Z,-3.75
2023-01-19T07:47:14.000Z,-3.75
2023-01-19T07:49:42.684Z,-3.74
2023-01-19T07:52:14.063Z,-3.74
2023-01-19T07:54:59.390Z,-3.76
2023-01-19T07:57:31.447Z,-3.76
2023-01-19T08:00:00.279Z,-3.78
2023-01-19T08:02:36.141Z,-3.79
2023-01-19T08:05:07.259Z,-3.81
2023-01-19T08:07:35.650Z,-3.81
2023-01-19T08:10:16.277Z,-3.82
2023-01-19T08:12:48.239Z,-3.82
2023-01-19T08:15:26.210Z,-3.83
2023-01-19T08:17:59.442Z,-3.84
2023-01-19T08:24:01.838Z,-3.86
2023-01-19T08:26:33.105Z,-3.86
2023-01-19T08:29:04.739Z,-3.86
2023-01-19T08:31:39.651Z,-3.85
2023-01-19T08:34:30.408Z,-3.84
2023-01-19T08:36:59.861Z,-3.82
2023-01-19T08:39:59.929Z,-3.82
2023-01-19T08:42:48.932Z,-3.80
2023-01-19T08:45:17.586Z,-3.79
2023-01-19T08:47:46.382Z,-3.82
2023-01-19T08:50:23.715Z,-3.83
2023-01-19T08:53:02.188Z,-3.80
2023-01-19T08:56:01.383Z,-3.78
2023-01-19T08:59:07.607Z,-3.76
2023-01-19T09:01:37.836Z,-3.73
2023-01-19T09:04:06.787Z,-3.70
2023-01-19T09:06:48.291Z,-3.65
2023-01-19T09:09:17.037Z,-3.64
2023-01-19T09:12:26.784Z,-3.62
2023-01-19T09:14:55.528Z,-3.56
2023-01-19T09:17:44.843Z,-3.54
2023-01-19T09:20:46.515Z,-3.54
2023-01-19T09:23:39.972Z,-3.51
2023-01-19T09:26:39.325Z,-3.49
2023-01-19T09:29:08.036Z,-3.45
2023-01-19T09:31:57.308Z,-3.41
2023-01-19T09:34:31.639Z,-3.40
2023-01-19T09:37:15.068Z,-3.42
2023-01-19T09:40:15.251Z,-3.38
2023-01-19T09:42:56.410Z,-3.34
2023-01-19T09:45:36.379Z,-3.32
2023-01-19T09:48:38.255Z,-3.28
2023-01-19T09:51:17.916Z,-3.25
2023-01-19T09:54:39.366Z,-3.23
2023-01-19T09:57:34.702Z,-3.17
2023-01-19T10:00:35.282Z,-3.16
2023-01-19T10:03:47.321Z,-3.13
2023-01-19T10:06:18.531Z,-3.12
2023-01-19T10:08:59.369Z,-3.07
2023-01-19T10:11:51.986Z,-3.05
2023-01-19T10:14:52.309Z,-3.02
2023-01-19T10:18:01.644Z,-2.96
2023-01-19T10:20:36.633Z,-2.93
2023-01-19T10:23:17.508Z,-2.93
2023-01-19T10:25:46.978Z,-2.90
2023-01-19T10:28:47.307Z,-2.84
2023-01-19T10:31:19.394Z,-2.81
2023-01-19T10:34:02.607Z,-2.78
2023-01-19T10:36:58.087Z,-2.76
2023-01-19T10:39:35.778Z,-2.71
2023-01-19T10:42:20.106Z,-2.70
2023-01-19T10:44:58.652Z,-2.65
2023-01-19T10:47:40.004Z,-2.62
2023-01-19T10:50:30.184Z,-2.59
2023-01-19T10:53:01.479Z,-2.54
2023-01-19T10:55:44.525Z,-2.50
2023-01-19T10:58:35.627Z,-2.47
2023-01-19T11:01:24.006Z,-2.40
2023-01-19T11:04:07.352Z,-2.40
2023-01-19T11:06:41.123Z,-2.41
2023-01-19T11:09:29.513Z,-2.41
2023-01-19T11:12:00.647Z,-2.36
2023-01-19T11:14:32.481Z,-2.31
2023-01-19T11:17:41.428Z,-2.25
2023-01-19T11:20:44.221Z,-2.17
2023-01-19T11:23:47.238Z,-2.13
2023-01-19T11:26:29.328Z,-2.09
2023-01-19T11:29:25.418Z,-2.09
2023-01-19T11:31:55.394Z,-2.06
2023-01-19T11:34:50.770Z,-2.03
2023-01-19T11:37:19.193Z,-1.98
2023-01-19T11:40:10.230Z,-1.94
2023-01-19T11:42:38.926Z,-1.90
2023-01-19T11:45:22.753Z,-1.86
2023-01-19T11:47:52.758Z,-1.85
2023-01-19T11:50:44.719Z,-1.79
2023-01-19T11:53:13.291Z,-1.75
2023-01-19T11:55:57.565Z,-1.73
2023-01-19T11:58:27.043Z,-1.74
2023-01-19T12:01:05.674Z,-1.77
2023-01-19T12:03:54.887Z,-1.73
2023-01-19T12:06:47.840Z,-1.72
2023-01-19T12:09:44.161Z,-1.71
2023-01-19T12:12:23.255Z,-1.71
2023-01-19T12:15:23.754Z,-1.73
2023-01-19T12:17:58.679Z,-1.74
2023-01-19T12:20:59.383Z,-1.75
2023-01-19T12:23:46.425Z,-1.72
2023-01-19T12:26:57.455Z,-1.65
2023-01-19T12:29:54.273Z,-1.62
2023-01-19T12:32:36.984Z,-1.61
2023-01-19T12:35:06.567Z,-1.58
2023-01-19T12:37:39.317Z,-1.56
2023-01-19T12:40:37.893Z,-1.55
2023-01-19T12:43:06.827Z,-1.57
2023-01-19T12:45:40.081Z,-1.58
2023-01-19T12:48:41.538Z,-1.54
2023-01-19T12:51:22.204Z,-1.51
2023-01-19T12:54:01.341Z,-1.48
2023-01-19T12:56:43.952Z,-1.46
2023-01-19T12:59:28.808Z,-1.47
2023-01-19T13:02:42.115Z,-1.46
2023-01-19T13:05:19.869Z,-1.44
2023-01-19T13:08:11.607Z,-1.46
2023-01-19T13:11:27.106Z,-1.47
2023-01-19T13:14:26.200Z,-1.47
2023-01-19T13:17:30.349Z,-1.48
2023-01-19T13:21:03.247Z,-1.47
2023-01-19T13:23:50.252Z,-1.46
2023-01-19T13:26:42.187Z,-1.48
2023-01-19T13:30:01.103Z,-1.49
2023-01-19T13:32:55.328Z,-1.46
2023-01-19T13:36:09.357Z,-1.48
2023-01-19T13:38:42.026Z,-1.46
2023-01-19T13:41:18.807Z,-1.43
2023-01-19T13:44:10.329Z,-1.40
2023-01-19T13:46:39.883Z,-1.40
2023-01-19T13:49:14.717Z,-1.39
2023-01-19T13:52:43.078Z,-1.41
2023-01-19T13:55:16.751Z,-1.42
2023-01-19T13:57:47.835Z,-1.39
2023-01-19T14:00:49.498Z,-1.38
2023-01-19T14:03:23.863Z,-1.40
2023-01-19T14:06:02.270Z,-1.40
2023-01-19T14:08:47.737Z,-1.39
2023-01-19T14:11:36.629Z,-1.38
2023-01-19T14:15:15.995Z,-1.38
2023-01-19T14:17:45.129Z,-1.35
2023-01-19T14:20:30.413Z,-1.34
2023-01-19T14:22:58.854Z,-1.39
2023-01-19T14:25:45.067Z,-1.42
2023-01-19T14:28:32.317Z,-1.46
2023-01-19T14:31:06.434Z,-1.52
2023-01-19T14:34:21.937Z,-1.55
2023-01-19T14:37:21.496Z,-1.60
2023-01-19T14:39:52.886Z,-1.64
2023-01-19T14:42:35.622Z,-1.66
2023-01-19T14:45:47.138Z,-1.68
2023-01-19T14:48:53.942Z,-1.72
2023-01-19T14:51:56.152Z,-1.74
2023-01-19T14:55:26.224Z,-1.80
2023-01-19T14:58:18.268Z,-1.83
2023-01-19T15:00:58.428Z,-1.87
2023-01-19T15:03:48.290Z,-1.92
2023-01-19T15:06:31.698Z,-1.98
2023-01-19T15:09:20.287Z,-2.06
2023-01-19T15:11:52.682Z,-2.09
2023-01-19T15:14:35.826Z,-2.12
2023-01-19T15:18:04.836Z,-2.13
2023-01-19T15:20:42.412Z,-2.17
2023-01-19T15:23:12.045Z,-2.21
2023-01-19T15:25:44.034Z,-2.24
2023-01-19T15:28:43.930Z,-2.28
2023-01-19T15:31:30.019Z,-2.31
2023-01-19T15:34:03.877Z,-2.39
2023-01-19T15:36:41.763Z,-2.49
2023-01-19T15:39:34.840Z,-2.51
2023-01-19T15:42:09.837Z,-2.50
2023-01-19T15:44:41.740Z,-2.52
2023-01-19T15:47:12.754Z,-2.54
2023-01-19T15:49:55.983Z,-2.56
2023-01-19T15:52:24.580Z,-2.58
2023-01-19T15:54:56.013Z,-2.65
2023-01-19T15:57:38.988Z,-2.69
2023-01-19T16:00:10.955Z,-2.70
2023-01-19T16:02:47.234Z,-2.73
2023-01-19T16:05:43.571Z,-2.76
2023-01-19T16:08:12.452Z,-2.81
2023-01-19T16:10:48.582Z,-2.79
2023-01-19T16:13:19.446Z,-2.76
2023-01-19T16:15:47.934Z,-2.76
2023-01-19T16:18:34.441Z,-2.76
2023-01-19T16:21:03.095Z,-2.73
2023-01-19T16:23:34.009Z,-2.73
2023-01-19T16:26:08.733Z,-2.72
2023-01-19T16:28:51.291Z,-2.69
2023-01-19T16:31:28.445Z,-2.67
2023-01-19T16:33:59.473Z,-2.65
2023-01-19T16:36:30.361Z,-2.67
2023-01-19T16:39:04.442Z,-2.69
2023-01-19T16:41:33.967Z,-2.72
2023-01-19T16:44:03.742Z,-2.74
2023-01-19T16:46:35.816Z,-2.80
2023-01-19T16:49:28.415Z,-2.81
2023-01-19T16:51:58.545Z,-2.83
2023-01-19T16:54:47.429Z,-2.84
2023-01-19T16:57:37.159Z,-2.87
2023-01-19T17:00:49.037Z,-2.90
2023-01-19T17:03:48.314Z,-2.93
2023-01-19T17:06:20.504Z,-2.97
2023-01-19T17:08:50.427Z,-2.98
2023-01-19T17:11:37.513Z,-2.99
2023-01-19T17:14:22.787Z,-3.00
2023-01-19T17:17:00.985Z,-3.00
2023-01-19T17:19:29.208Z,-3.00
2023-01-19T17:22:21.440Z,-2.99
2023-01-19T17:25:05.462Z,-3.00
2023-01-19T17:28:14.443Z,-3.05
2023-01-19T17:31:08.554Z,-3.17
2023-01-19T17:33:41.053Z,-3.16
2023-01-19T17:36:31.772Z,-3.20
2023-01-19T17:39:07.372Z,-3.26
2023-01-19T17:41:37.425Z,-3.28
2023-01-19T17:44:13.519Z,-3.28
2023-01-19T17:46:51.077Z,-3.24
2023-01-19T17:49:19.634Z,-3.21
2023-01-19T17:51:58.002Z,-3.26
2023-01-19T17:54:29.839Z,-3.25
2023-01-19T17:57:18.192Z,-3.25
2023-01-19T17:59:47.984Z,-3.22
2023-01-19T18:02:26.278Z,-3.18
2023-01-19T18:04:54.919Z,-3.14
2023-01-19T18:07:32.464Z,-3.09
2023-01-19T18:10:03.558Z,-3.06
2023-01-19T18:12:31.807Z,-3.03
2023-01-19T18:15:00.516Z,-3.03
2023-01-19T18:17:31.353Z,-3.03
2023-01-19T18:19:59.698Z,-3.02
2023-01-19T18:22:36.822Z,-3.02
2023-01-19T18:25:05.384Z,-3.03
2023-01-19T18:27:44.468Z,-3.04
2023-01-19T18:30:22.533Z,-3.06
2023-01-19T18:32:52.305Z,-3.09
2023-01-19T18:35:23.494Z,-3.12
2023-01-19T18:38:24.256Z,-3.15
2023-01-19T18:41:21.857Z,-3.16
2023-01-19T18:43:59.721Z,-3.18
2023-01-19T18:46:46.603Z,-3.21
2023-01-19T18:49:14.898Z,-3.23
2023-01-19T18:51:58.336Z,-3.25
2023-01-19T18:54:52.961Z,-3.27
2023-01-19T18:57:57.588Z,-3.28
2023-01-19T19:00:29.107Z,-3.30
2023-01-19T19:02:58.580Z,-3.33
2023-01-19T19:06:01.398Z,-3.36
2023-01-19T19:09:28.727Z,-3.41
2023-01-19T19:11:57.285Z,-3.47
2023-01-19T19:14:33.310Z,-3.49
2023-01-19T19:17:11.070Z,-3.50
2023-01-19T19:19:39.338Z,-3.50
2023-01-19T19:22:27.871Z,-3.49
2023-01-19T19:24:56.145Z,-3.51
2023-01-19T19:27:27.539Z,-3.52
2023-01-19T19:30:12.435Z,-3.53
2023-01-19T19:32:46.416Z,-3.56
2023-01-19T19:35:18.909Z,-3.56
2023-01-19T19:37:48.500Z,-3.57
2023-01-19T19:40:27.048Z,-3.56
2023-01-19T19:42:58.287Z,-3.59
2023-01-19T19:45:27.155Z,-3.60
2023-01-19T19:47:57.683Z,-3.60
2023-01-19T19:51:17.067Z,-3.58
2023-01-19T19:53:50.842Z,-3.52
2023-01-19T19:56:30.908Z,-3.47
2023-01-19T19:59:19.945Z,-3.43
2023-01-19T20:01:51.205Z,-3.42
2023-01-19T20:04:21.473Z,-3.43
2023-01-19T20:07:00.472Z,-3.43
2023-01-19T20:09:37.871Z,-3.43
2023-01-19T20:12:06.501Z,-3.43
2023-01-19T20:14:41.288Z,-3.43
2023-01-19T20:17:09.536Z,-3.44
2023-01-19T20:19:38.029Z,-3.46
2023-01-19T20:22:07.239Z,-3.46
2023-01-19T20:24:35.691Z,-3.47
2023-01-19T20:27:11.577Z,-3.47
2023-01-19T20:29:40.050Z,-3.48
2023-01-19T20:32:09.308Z,-3.46
2023-01-19T20:34:55.526Z,-3.43
2023-01-19T20:37:23.706Z,-3.44
2023-01-19T20:40:03.777Z,-3.47
2023-01-19T20:42:41.500Z,-3.51
2023-01-19T20:45:21.629Z,-3.52
2023-01-19T20:47:55.616Z,-3.56
2023-01-19T20:50:25.119Z,-3.58
2023-01-19T20:53:11.285Z,-3.62
2023-01-19T20:55:39.974Z,-3.64
2023-01-19T20:58:18.701Z,-3.67
2023-01-19T21:01:11.994Z,-3.68
2023-01-19T21:03:58.559Z,-3.68
2023-01-19T21:06:36.754Z,-3.69
2023-01-19T21:09:10.517Z,-3.67
2023-01-19T21:11:39.856Z,-3.66
2023-01-19T21:14:17.288Z,-3.67
2023-01-19T21:16:52.160Z,-3.67
2023-01-19T21:19:24.356Z,-3.68
2023-01-19T21:22:01.368Z,-3.67
2023-01-19T21:24:29.786Z,-3.68
2023-01-19T21:26:58.827Z,-3.71
2023-01-19T21:29:27.337Z,-3.74
2023-01-19T21:31:55.798Z,-3.74
2023-01-19T21:34:33.348Z,-3.73
2023-01-19T21:37:01.743Z,-3.73
2023-01-19T21:39:30.216Z,-3.77
2023-01-19T21:41:58.527Z,-3.81
2023-01-19T21:44:27.367Z,-3.84
2023-01-19T21:46:59.194Z,-3.83
2023-01-19T21:49:27.925Z,-3.81
2023-01-19T21:51:56.226Z,-3.78
2023-01-19T21:54:24.517Z,-3.76
2023-01-19T21:56:52.987Z,-3.76
2023-01-19T21:59:21.346Z,-3.76
2023-01-19T22:01:53.484Z,-3.73
2023-01-19T22:04:22.423Z,-3.70
2023-01-19T22:06:50.972Z,-3.69
2023-01-19T22:09:19.808Z,-3.66
2023-01-19T22:11:50.530Z,-3.64
2023-01-19T22:14:28.029Z,-3.60
2023-01-19T22:16:56.426Z,-3.56
2023-01-19T22:19:28.124Z,-3.55
2023-01-19T22:21:56.480Z,-3.54
2023-01-19T22:24:39.705Z,-3.52
2023-01-19T22:27:09.054Z,-3.52
2023-01-19T22:29:45.020Z,-3.53
2023-01-19T22:32:13.241Z,-3.55
2023-01-19T22:34:42.021Z,-3.59
2023-01-19T22:37:10.277Z,-3.63
2023-01-19T22:39:39.132Z,-3.63
2023-01-19T22:42:07.609Z,-3.63
2023-01-19T22:44:46.027Z,-3.63
2023-01-19T22:47:14.305Z,-3.63
2023-01-19T22:49:42.610Z,-3.63
2023-01-19T22:52:11.067Z,-3.64
2023-01-19T22:54:39.369Z,-3.64
2023-01-19T22:57:11.324Z,-3.66
2023-01-19T22:59:43.806Z,-3.67
2023-01-19T23:02:14.360Z,-3.70
2023-01-19T23:04:43.110Z,-3.73
2023-01-19T23:07:18.749Z,-3.76
2023-01-19T23:09:47.813Z,-3.80
2023-01-19T23:12:16.595Z,-3.85
2023-01-19T23:14:45.467Z,-3.92
2023-01-19T23:17:13.896Z,-3.98
2023-01-19T23:19:42.681Z,-4.03
2023-01-19T23:22:10.944Z,-4.07
2023-01-19T23:24:39.238Z,-4.09
2023-01-19T23:27:08.225Z,-4.11
2023-01-19T23:29:46.131Z,-4.11
2023-01-19T23:32:14.861Z,-4.11
2023-01-19T23:34:43.518Z,-4.11
2023-01-19T23:37:14.972Z,-4.14
2023-01-19T23:39:43.577Z,-4.16
2023-01-19T23:42:12.145Z,-4.20
2023-01-19T23:44:42.184Z,-4.22
2023-01-19T23:47:10.453Z,-4.24
2023-01-19T23:49:40.392Z,-4.26
2023-01-19T23:52:08.732Z,-4.23
2023-01-19T23:54:37.478Z,-4.21
2023-01-19T23:57:06.263Z,-4.21
2023-01-19T23:59:43.475Z,-4.16
